• Join FlightAware (Why Join?)
  • Login
  • US Flag 
07:11PM EST


 

Airport Tracker/Info


-or-


 

Live Flight TrackerFlight Track Log ✈ UAL4536 ✈ 20-Apr-2014 ✈ KEWR - KCVG

Flight Track Log - Related Links

Times and Time Zones

All times are in EDT time to prevent confusion due to time zone crossing. See the UAL4536 flight status page for this flight to view local times or setup timezone preferences in your user account.

Time Position Orientation Groundspeed Altitude Reporting Facility
EDT Latitude Longitude Course Direction KTS MPH feet Rate Location/Type
08:02PM 40.6333 -74.1833 237° Southwest 186 214 2,300  Level New York TRACON
08:03PM 40.6000 -74.2500 237° Southwest 244 281 4,700 2,400 Climbing New York TRACON
08:04PM 40.6000 -74.3500 270° West 262 302 7,100 2,340 Climbing New York TRACON
08:05PM 40.6000 -74.4333 270° West 274 315 9,400 1,980 Climbing New York TRACON
08:06PM 40.6167 -74.5500 281° West 287 330 11,100 1,260 Climbing New York TRACON
08:08PM 40.6333 -74.7117 278° West 325 374 12,500 1,020 Climbing New York Center
08:09PM 40.6519 -74.8358 281° West 343 395 13,700 1,200 Climbing New York Center
08:10PM 40.6683 -74.9653 280° West 356 410 15,000 1,260 Climbing New York Center
08:11PM 40.6719 -75.0942 272° West 356 410 16,300 1,200 Climbing New York Center
08:12PM 40.6264 -75.2006 241° Southwest 351 404 17,500 1,080 Climbing New York Center
08:13PM 40.5694 -75.3281 240° Southwest 366 421 18,500 1,020 Climbing New York Center
08:14PM 40.5169 -75.4419 239° Southwest 366 421 19,600 1,200 Climbing New York Center
08:15PM 40.4622 -75.5611 239° Southwest 372 428 20,900 1,200 Climbing New York Center
08:16PM 40.4094 -75.6800 240° Southwest 372 428 22,000 1,020 Climbing New York Center
08:17PM 40.3564 -75.7989 240° Southwest 372 428 23,000 960 Climbing New York Center
08:18PM 40.2950 -75.9197 236° Southwest 379 436 24,000 960 Climbing New York Center
08:19PM 40.2378 -76.0378 238° Southwest 400 460 25,000 960 Climbing New York Center
08:20PM 40.1822 -76.1614 240° Southwest 395 455 26,000 900 Climbing New York Center
08:21PM 40.1311 -76.2742 239° Southwest 395 455 26,800 900 Climbing New York Center
08:22PM 40.0733 -76.3917 237° Southwest 395 455 27,800 960 Climbing New York Center
08:23PM 40.0197 -76.5092 239° Southwest 395 455 28,800 780 Climbing New York Center
08:24PM 39.9250 -76.7117 239° Southwest 388 447 30,000 420 Climbing Washington Center
08:25PM 39.8592 -76.8456 237° Southwest 394 453 30,000  Level Washington Center
08:26PM 39.7994 -76.9797 240° Southwest 415 478 30,000  Level Washington Center
08:27PM 39.7375 -77.1133 239° Southwest 431 496 30,000  Level Washington Center
08:28PM 39.6731 -77.2469 238° Southwest 431 496 30,000  Level Washington Center
08:29PM 39.6131 -77.3719 238° Southwest 431 496 30,000  Level Washington Center
08:30PM 39.5506 -77.4997 238° Southwest 426 490 30,000  Level Washington Center
08:31PM 39.4922 -77.6272 239° Southwest 426 490 30,000  Level Washington Center
08:32PM 39.4297 -77.7544 238° Southwest 426 490 30,000  Level Washington Center
08:33PM 39.3750 -77.8897 242° Southwest 426 490 30,000  Level Washington Center
08:34PM 39.3389 -78.0389 253° West 426 490 30,000  Level Washington Center
08:35PM 39.3044 -78.1853 253° West 431 496 30,000  Level Washington Center
08:36PM 39.2678 -78.3314 252° West 431 496 30,000  Level Washington Center
08:37PM 39.2331 -78.4803 253° West 431 496 30,000  Level Washington Center
08:38PM 39.1981 -78.6289 253° West 437 503 30,000  Level Washington Center
08:39PM 39.1611 -78.7772 252° West 437 503 30,000  Level Washington Center
08:40PM 39.1258 -78.9203 252° West 437 503 30,000  Level Washington Center
08:41PM 39.0883 -79.0681 252° West 437 503 30,000  Level Washington Center
08:42PM 39.0506 -79.2161 252° West 437 503 30,000  Level Washington Center
08:43PM 39.0128 -79.3639 252° West 437 503 30,000  Level Washington Center
08:44PM 38.9767 -79.5117 253° West 437 503 30,000  Level Washington Center
08:45PM 38.9403 -79.6644 253° West 442 509 30,000  Level Washington Center
08:46PM 38.9019 -79.8089 251° West 442 509 30,000  Level Washington Center
08:47PM 38.8656 -79.9536 252° West 437 503 30,000  Level Washington Center
08:49PM 38.8164 -80.1350 251° West 433 498 30,000  Level Indianapolis Center
08:50PM 38.8156 -80.2883 270° West 431 496 30,000  Level Indianapolis Center
08:51PM 38.8089 -80.4706 267° West 430 495 30,000  Level Indianapolis Center
08:52PM 38.8042 -80.6222 268° West 428 493 30,000  Level Indianapolis Center
08:53PM 38.7997 -80.7744 268° West 428 493 30,000  Level Indianapolis Center
08:54PM 38.7944 -80.9258 267° West 427 491 30,000  Level Indianapolis Center
08:55PM 38.7903 -81.0772 268° West 427 491 30,000  Level Indianapolis Center
08:56PM 38.7711 -81.2242 261° West 421 484 30,000  Level Indianapolis Center
08:57PM 38.7461 -81.3722 258° West 421 484 30,000  Level Indianapolis Center
08:58PM 38.7183 -81.5300 257° West 421 484 30,000  Level Indianapolis Center
08:59PM 38.6914 -81.6867 258° West 425 489 30,000  Level Indianapolis Center
09:00PM 38.6656 -81.8353 257° West 428 493 30,000  Level Indianapolis Center
09:01PM 38.6400 -81.9839 258° West 429 494 30,000 -1,080 Level Indianapolis Center
09:02PM 38.6131 -82.1325 257° West 429 494 27,900 -2,220 Descending Indianapolis Center
09:03PM 38.5858 -82.2803 257° West 429 494 25,500 -1,980 Descending Indianapolis Center
09:04PM 38.5600 -82.4272 257° West 428 493 24,000 -1,020 Descending Indianapolis Center
09:05PM 38.5308 -82.5878 257° West 416 479 23,500 -960 Descending Indianapolis Center
09:06PM 38.5036 -82.7331 257° West 416 479 22,100 -1,500 Descending Indianapolis Center
09:07PM 38.5097 -82.8803 273° West 414 476 20,400 -1,680 Descending Indianapolis Center
09:08PM 38.5233 -83.0181 277° West 401 461 18,800 -1,440 Descending Indianapolis Center
09:09PM 38.5367 -83.1506 277° West 385 443 17,500 -1,440 Descending Indianapolis Center
09:10PM 38.5517 -83.2861 278° West 385 443 15,900 -1,680 Descending Indianapolis Center
09:11PM 38.5667 -83.4397 277° West 382 440 14,100 -1,680 Descending Indianapolis Center
09:12PM 38.5786 -83.5661 277° West 368 423 12,600 -1,560 Descending Indianapolis Center
09:13PM 38.5914 -83.6869 278° West 355 409 11,000 -1,320 Descending Indianapolis Center
09:14PM 38.6033 -83.8103 277° West 349 402 10,000 -540 Descending Indianapolis Center
09:15PM 38.6206 -83.9372 280° West 356 410 10,000  Level Indianapolis Center
09:16PM 38.6756 -84.0394 305° West 356 410 10,000  Level Indianapolis Center
09:17PM 38.7303 -84.1469 303° West 357 411 10,000  Level Indianapolis Center
09:18PM 38.7853 -84.2533 304° West 360 414 10,000  Level Indianapolis Center
09:19PM 38.8400 -84.3589 304° West 357 411 10,000  Level Indianapolis Center
09:20PM 38.8933 -84.4653 303° West 357 411 10,000 -600 Level Indianapolis Center
09:21PM 38.9500 -84.5314 318° Northwest 303 349 8,800 -1,500 Descending Indianapolis Center
09:22PM 39.0247 -84.5417 354° North 278 320 7,000 -1,620 Descending Indianapolis Center
09:23PM 39.0922 -84.5406 North 251 289 5,600 -1,500 Descending Indianapolis Center
09:24PM 39.1686 -84.5425 359° North 238 274 4,000 -960 Descending Indianapolis Center
09:25PM 39.2056 -84.5892 316° Northwest 240 276 3,700 -780 Descending Indianapolis Center
09:27PM 39.1167 -84.6500 208° Southwest 174 200 2,000 -1,020 Descending Cincinnati TRACON
09:28PM 39.0667 -84.6500 180° South 116 133 1,200 -840 Descending Cincinnati TRACON